Portada
METAR-TAF:

METAR-TAF

Aeroports :

Exeter, Anglaterra

latitud: 50-44N, longitud: 003-25W, altitud: 30 m

Observació

L'informe es va fer fa 37 minuts, a les 10:20 UTC
Vent 3 kt amb direcció variable
Temperatura 21°C
Humitat 60%
Pressió 1020 hPa
Visibilitat 10 km o més
Escasses núvols a una alçada de 4500 ft

METAR: EGTE 161020Z VRB03KT 9999 FEW045 21/13 Q1020

Hora: 11:57 (10:57 UTC)

Pronòstic

L'informe es va fer fa 3 hores i 1 minuts, a les 07:56 UTC
Pronòstic vàlid del 16 a les 09 UTC al 16 a les 18 UTC
Vent 3 kt amb direcció variable
Visibilitat 10 km o més
Escasses núvols a una alçada de 4500 ft
Evolucionant progressivament
l' 16 a les 09 UTC al 16 a les 12 UTC
Vent 10 kt del Sud/Sud-Est

TAF: EGTE 160756Z 1609/1618 VRB03KT 9999 FEW045 BECMG 1609/1612 16010KT

Observacions i pronòstics meteorològics de més de 4000 aeroports (METAR i TAF).

Les estacions disponibles són els punts grocs i vermells al mapa.

Posi el ratolí al punt desitjat per veure el nom de l'estació.

Feu clic per veure les observacions i els pronòstics meteorològics.

Per canviar el mapa: feu clic els botons verds amb una creu de color negre per apropar; al botó verd amb un guió per allunyar la imatge; o en les fletxes verdes per a mapes adjacents.


METAR-TAF: